SIL146 KMIA-KMCO
Flight info
| Callsign | SIL146 |
|---|---|
| Flight time | 0h 48m |
| Altitude | 8000 |
| Route | SHANC T347 BOBOE/N0285F090 T347 DURRY/N0281F080 T347 BAIRN |
| Aircraft | AT46/M-SDFGIRY/S |
Departure
| Time | 2026-04-24 13:45 |
|---|---|
| Airport | Miami International Airport (KMIA) |
Arrival
| Time | 2026-04-24 14:33 |
|---|---|
| Airport | Orlando International Airport (KMCO) |
| Time | Latitude | Longitude | Altitude | Speed | Heading |
|---|---|---|---|---|---|
| 2026-04-24 13:29 | 25.80616 | -80.26977 | 13 ft | 0 kts | 216° |
| 2026-04-24 13:37 | 25.80606 | -80.26985 | 13 ft | 5 kts | 217° |
| 2026-04-24 13:37 | 25.80573 | -80.27018 | 12 ft | 9 kts | 229° |
| 2026-04-24 13:38 | 25.80526 | -80.27094 | 12 ft | 16 kts | 245° |
| 2026-04-24 13:38 | 25.80514 | -80.27240 | 14 ft | 22 kts | 269° |
| 2026-04-24 13:38 | 25.80502 | -80.27430 | 13 ft | 28 kts | 265° |
| 2026-04-24 13:38 | 25.80505 | -80.27654 | 16 ft | 30 kts | 267° |
| 2026-04-24 13:39 | 25.80494 | -80.27892 | 16 ft | 29 kts | 268° |
| 2026-04-24 13:39 | 25.80490 | -80.28090 | 16 ft | 23 kts | 270° |
| 2026-04-24 13:39 | 25.80482 | -80.28247 | 20 ft | 19 kts | 266° |
| 2026-04-24 13:39 | 25.80476 | -80.28388 | 15 ft | 18 kts | 267° |
| 2026-04-24 13:40 | 25.80468 | -80.28527 | 13 ft | 17 kts | 266° |
| 2026-04-24 13:40 | 25.80462 | -80.28652 | 14 ft | 15 kts | 266° |
| 2026-04-24 13:40 | 25.80455 | -80.28768 | 15 ft | 15 kts | 266° |
| 2026-04-24 13:40 | 25.80448 | -80.28886 | 12 ft | 16 kts | 266° |
| 2026-04-24 13:41 | 25.80444 | -80.29008 | 12 ft | 16 kts | 270° |
| 2026-04-24 13:41 | 25.80444 | -80.29122 | 14 ft | 14 kts | 269° |
| 2026-04-24 13:41 | 25.80440 | -80.29225 | 15 ft | 13 kts | 267° |
| 2026-04-24 13:41 | 25.80436 | -80.29331 | 15 ft | 14 kts | 267° |
| 2026-04-24 13:42 | 25.80431 | -80.29442 | 14 ft | 15 kts | 267° |
| 2026-04-24 13:42 | 25.80426 | -80.29555 | 15 ft | 14 kts | 267° |
| 2026-04-24 13:42 | 25.80423 | -80.29659 | 16 ft | 13 kts | 268° |
| 2026-04-24 13:42 | 25.80406 | -80.29751 | 18 ft | 11 kts | 219° |
| 2026-04-24 13:43 | 25.80334 | -80.29753 | 14 ft | 10 kts | 163° |
| 2026-04-24 13:43 | 25.80309 | -80.29710 | 13 ft | 2 kts | 86° |
| 2026-04-24 13:43 | 25.80309 | -80.29702 | 13 ft | 0 kts | 85° |
| 2026-04-24 13:44 | 25.80310 | -80.29693 | 13 ft | 14 kts | 85° |
| 2026-04-24 13:44 | 25.80327 | -80.29305 | 14 ft | 86 kts | 88° |
| 2026-04-24 13:44 | 25.80367 | -80.28423 | 127 ft | 130 kts | 86° |
| 2026-04-24 13:45 | 25.80420 | -80.27478 | 866 ft | 121 kts | 83° |
| 2026-04-24 13:45 | 25.80740 | -80.26605 | 1401 ft | 130 kts | 57° |
| 2026-04-24 13:45 | 25.81339 | -80.25679 | 1617 ft | 163 kts | 57° |
| 2026-04-24 13:45 | 25.82016 | -80.24647 | 2215 ft | 168 kts | 56° |
| 2026-04-24 13:46 | 25.82803 | -80.23760 | 3059 ft | 151 kts | 21° |
| 2026-04-24 13:46 | 25.83817 | -80.23898 | 3505 ft | 173 kts | 334° |
| 2026-04-24 13:46 | 25.85049 | -80.24623 | 3329 ft | 224 kts | 333° |
| 2026-04-24 13:46 | 25.86557 | -80.25427 | 3391 ft | 249 kts | 338° |
| 2026-04-24 13:47 | 25.88198 | -80.26108 | 3622 ft | 253 kts | 344° |
| 2026-04-24 13:47 | 25.89913 | -80.26575 | 3926 ft | 248 kts | 350° |
| 2026-04-24 13:47 | 25.91538 | -80.26876 | 4680 ft | 227 kts | 353° |
| 2026-04-24 13:47 | 25.93055 | -80.27125 | 5357 ft | 213 kts | 352° |
| 2026-04-24 13:48 | 25.94479 | -80.27352 | 6019 ft | 202 kts | 351° |
| 2026-04-24 13:48 | 25.95835 | -80.27592 | 6631 ft | 194 kts | 350° |
| 2026-04-24 13:48 | 25.97138 | -80.27840 | 7196 ft | 188 kts | 349° |
| 2026-04-24 13:48 | 25.98414 | -80.28086 | 7717 ft | 184 kts | 348° |
| 2026-04-24 13:49 | 25.99724 | -80.28346 | 7909 ft | 202 kts | 348° |
| 2026-04-24 13:49 | 26.01161 | -80.28634 | 7960 ft | 224 kts | 348° |
| 2026-04-24 13:49 | 26.02766 | -80.28951 | 7982 ft | 243 kts | 348° |
| 2026-04-24 13:49 | 26.04483 | -80.29287 | 7994 ft | 257 kts | 348° |
| 2026-04-24 13:50 | 26.06280 | -80.29649 | 8002 ft | 268 kts | 348° |
| 2026-04-24 13:50 | 26.08141 | -80.30031 | 8002 ft | 275 kts | 348° |
| 2026-04-24 13:50 | 26.10040 | -80.30407 | 7997 ft | 279 kts | 349° |
| 2026-04-24 13:50 | 26.11949 | -80.30761 | 7996 ft | 274 kts | 349° |
| 2026-04-24 13:51 | 26.13809 | -80.31097 | 7995 ft | 269 kts | 349° |
| 2026-04-24 13:51 | 26.15650 | -80.31427 | 7994 ft | 265 kts | 349° |
| 2026-04-24 13:51 | 26.17458 | -80.31767 | 7996 ft | 262 kts | 349° |
| 2026-04-24 13:51 | 26.19251 | -80.32114 | 7998 ft | 260 kts | 349° |
| 2026-04-24 13:52 | 26.21039 | -80.32462 | 7999 ft | 261 kts | 348° |
| 2026-04-24 13:52 | 26.22836 | -80.32810 | 8003 ft | 263 kts | 349° |
| 2026-04-24 13:52 | 26.24641 | -80.33163 | 8051 ft | 265 kts | 348° |
| 2026-04-24 13:52 | 26.26442 | -80.33518 | 8042 ft | 268 kts | 348° |
| 2026-04-24 13:53 | 26.28287 | -80.33877 | 8003 ft | 269 kts | 349° |
| 2026-04-24 13:53 | 26.30134 | -80.34232 | 7992 ft | 268 kts | 349° |
| 2026-04-24 13:53 | 26.31975 | -80.34578 | 8025 ft | 268 kts | 349° |
| 2026-04-24 13:53 | 26.33824 | -80.34942 | 8054 ft | 271 kts | 348° |
| 2026-04-24 13:54 | 26.35693 | -80.35328 | 8041 ft | 276 kts | 348° |
| 2026-04-24 13:54 | 26.37587 | -80.35746 | 8020 ft | 278 kts | 347° |
| 2026-04-24 13:54 | 26.39474 | -80.36221 | 8000 ft | 276 kts | 346° |
| 2026-04-24 13:54 | 26.41334 | -80.36704 | 8004 ft | 272 kts | 346° |
| 2026-04-24 13:55 | 26.43147 | -80.37178 | 8003 ft | 270 kts | 346° |
| 2026-04-24 13:55 | 26.44970 | -80.37653 | 8003 ft | 268 kts | 346° |
| 2026-04-24 13:55 | 26.46782 | -80.38125 | 8001 ft | 267 kts | 346° |
| 2026-04-24 13:55 | 26.48586 | -80.38578 | 8006 ft | 265 kts | 348° |
| 2026-04-24 13:56 | 26.50418 | -80.38779 | 7999 ft | 265 kts | 356° |
| 2026-04-24 13:56 | 26.52259 | -80.38846 | 8010 ft | 264 kts | 357° |
| 2026-04-24 13:56 | 26.54104 | -80.38909 | 8005 ft | 265 kts | 356° |
| 2026-04-24 13:56 | 26.55945 | -80.39009 | 8010 ft | 265 kts | 355° |
| 2026-04-24 13:57 | 26.57761 | -80.39136 | 8008 ft | 265 kts | 355° |
| 2026-04-24 13:57 | 26.59600 | -80.39277 | 8007 ft | 264 kts | 355° |
| 2026-04-24 13:57 | 26.61439 | -80.39410 | 8015 ft | 265 kts | 355° |
| 2026-04-24 13:57 | 26.63276 | -80.39539 | 8011 ft | 265 kts | 355° |
| 2026-04-24 13:58 | 26.65122 | -80.39669 | 7995 ft | 265 kts | 355° |
| 2026-04-24 13:58 | 26.66967 | -80.39797 | 7982 ft | 266 kts | 355° |
| 2026-04-24 13:58 | 26.68812 | -80.39931 | 7979 ft | 266 kts | 355° |
| 2026-04-24 13:58 | 26.70656 | -80.40062 | 7970 ft | 266 kts | 355° |
| 2026-04-24 13:59 | 26.72504 | -80.40193 | 7966 ft | 264 kts | 354° |
| 2026-04-24 13:59 | 26.74251 | -80.40715 | 7965 ft | 259 kts | 335° |
| 2026-04-24 13:59 | 26.75854 | -80.41598 | 7965 ft | 260 kts | 332° |
| 2026-04-24 13:59 | 26.77455 | -80.42534 | 7966 ft | 261 kts | 331° |
| 2026-04-24 14:00 | 26.79075 | -80.43454 | 7959 ft | 261 kts | 333° |
| 2026-04-24 14:00 | 26.80724 | -80.44331 | 7960 ft | 262 kts | 334° |
| 2026-04-24 14:00 | 26.82382 | -80.45185 | 7965 ft | 262 kts | 334° |
| 2026-04-24 14:00 | 26.84038 | -80.46047 | 7964 ft | 263 kts | 334° |
| 2026-04-24 14:01 | 26.85700 | -80.46914 | 7963 ft | 263 kts | 334° |
| 2026-04-24 14:01 | 26.87342 | -80.47768 | 7971 ft | 263 kts | 334° |
| 2026-04-24 14:01 | 26.89007 | -80.48639 | 7993 ft | 265 kts | 334° |
| 2026-04-24 14:01 | 26.90680 | -80.49515 | 7961 ft | 266 kts | 334° |
| 2026-04-24 14:02 | 26.92359 | -80.50386 | 7952 ft | 265 kts | 334° |
| 2026-04-24 14:02 | 26.94033 | -80.51259 | 7954 ft | 265 kts | 334° |
| 2026-04-24 14:02 | 26.95702 | -80.52132 | 7963 ft | 264 kts | 334° |
| 2026-04-24 14:02 | 26.97367 | -80.53004 | 7969 ft | 264 kts | 334° |
| 2026-04-24 14:03 | 26.99034 | -80.53878 | 7958 ft | 264 kts | 334° |
| 2026-04-24 14:03 | 27.00689 | -80.54767 | 7965 ft | 264 kts | 333° |
| 2026-04-24 14:03 | 27.02330 | -80.55697 | 7972 ft | 264 kts | 331° |
| 2026-04-24 14:03 | 27.03951 | -80.56664 | 7968 ft | 264 kts | 331° |
| 2026-04-24 14:04 | 27.05550 | -80.57622 | 7962 ft | 264 kts | 331° |
| 2026-04-24 14:04 | 27.07169 | -80.58591 | 7962 ft | 263 kts | 331° |
| 2026-04-24 14:04 | 27.08785 | -80.59558 | 7967 ft | 263 kts | 331° |
| 2026-04-24 14:04 | 27.10400 | -80.60525 | 7968 ft | 263 kts | 331° |
| 2026-04-24 14:05 | 27.12017 | -80.61494 | 7992 ft | 264 kts | 331° |
| 2026-04-24 14:05 | 27.13640 | -80.62466 | 7998 ft | 265 kts | 331° |
| 2026-04-24 14:05 | 27.15268 | -80.63442 | 7982 ft | 265 kts | 331° |
| 2026-04-24 14:05 | 27.16897 | -80.64414 | 7980 ft | 265 kts | 331° |
| 2026-04-24 14:06 | 27.18523 | -80.65388 | 7973 ft | 265 kts | 331° |
| 2026-04-24 14:06 | 27.20146 | -80.66367 | 7977 ft | 264 kts | 331° |
| 2026-04-24 14:06 | 27.21766 | -80.67338 | 7965 ft | 264 kts | 331° |
| 2026-04-24 14:06 | 27.23387 | -80.68307 | 7984 ft | 264 kts | 331° |
| 2026-04-24 14:07 | 27.25011 | -80.69284 | 7988 ft | 265 kts | 331° |
| 2026-04-24 14:07 | 27.26640 | -80.70264 | 7968 ft | 265 kts | 331° |
| 2026-04-24 14:07 | 27.28266 | -80.71241 | 7978 ft | 265 kts | 331° |
| 2026-04-24 14:07 | 27.29897 | -80.72217 | 7977 ft | 266 kts | 331° |
| 2026-04-24 14:08 | 27.31530 | -80.73197 | 7976 ft | 266 kts | 331° |
| 2026-04-24 14:08 | 27.33144 | -80.74167 | 7969 ft | 266 kts | 331° |
| 2026-04-24 14:08 | 27.34768 | -80.75146 | 7963 ft | 265 kts | 331° |
| 2026-04-24 14:08 | 27.36394 | -80.76139 | 7980 ft | 265 kts | 330° |
| 2026-04-24 14:09 | 27.38012 | -80.77143 | 7979 ft | 266 kts | 330° |
| 2026-04-24 14:09 | 27.39632 | -80.78142 | 7971 ft | 266 kts | 331° |
| 2026-04-24 14:09 | 27.41262 | -80.79124 | 7968 ft | 266 kts | 331° |
| 2026-04-24 14:09 | 27.42890 | -80.80107 | 7966 ft | 265 kts | 331° |
| 2026-04-24 14:10 | 27.43969 | -80.80755 | 7978 ft | 265 kts | 331° |
| 2026-04-24 14:10 | 27.46146 | -80.82069 | 7970 ft | 266 kts | 331° |
| 2026-04-24 14:10 | 27.47775 | -80.83049 | 7970 ft | 265 kts | 331° |
| 2026-04-24 14:10 | 27.49401 | -80.84031 | 7975 ft | 265 kts | 331° |
| 2026-04-24 14:11 | 27.51025 | -80.85014 | 7972 ft | 265 kts | 331° |
| 2026-04-24 14:11 | 27.52650 | -80.85993 | 7977 ft | 265 kts | 331° |
| 2026-04-24 14:11 | 27.55881 | -80.87945 | 7970 ft | 264 kts | 331° |
| 2026-04-24 14:12 | 27.57503 | -80.88923 | 7972 ft | 264 kts | 331° |
| 2026-04-24 14:12 | 27.59122 | -80.89903 | 7980 ft | 264 kts | 331° |
| 2026-04-24 14:12 | 27.60742 | -80.90883 | 7983 ft | 264 kts | 331° |
| 2026-04-24 14:12 | 27.62358 | -80.91863 | 7983 ft | 264 kts | 331° |
| 2026-04-24 14:13 | 27.63986 | -80.92850 | 7986 ft | 265 kts | 331° |
| 2026-04-24 14:13 | 27.65615 | -80.93834 | 7978 ft | 266 kts | 331° |
| 2026-04-24 14:13 | 27.67243 | -80.94821 | 7978 ft | 266 kts | 331° |
| 2026-04-24 14:13 | 27.68879 | -80.95812 | 7972 ft | 267 kts | 331° |
| 2026-04-24 14:14 | 27.69963 | -80.96467 | 7967 ft | 266 kts | 331° |
| 2026-04-24 14:14 | 27.71594 | -80.97453 | 7972 ft | 266 kts | 331° |
| 2026-04-24 14:14 | 27.75377 | -80.99746 | 7978 ft | 265 kts | 331° |
| 2026-04-24 14:15 | 27.76475 | -81.00413 | 7980 ft | 265 kts | 331° |
| 2026-04-24 14:15 | 27.78081 | -81.01390 | 7980 ft | 265 kts | 331° |
| 2026-04-24 14:15 | 27.79707 | -81.02379 | 7974 ft | 266 kts | 331° |
| 2026-04-24 14:15 | 27.81337 | -81.03366 | 7969 ft | 265 kts | 331° |
| 2026-04-24 14:16 | 27.82963 | -81.04352 | 7979 ft | 265 kts | 331° |
| 2026-04-24 14:16 | 27.84590 | -81.05339 | 7971 ft | 265 kts | 331° |
| 2026-04-24 14:16 | 27.86222 | -81.06329 | 7981 ft | 266 kts | 331° |
| 2026-04-24 14:17 | 27.89482 | -81.08313 | 7977 ft | 265 kts | 331° |
| 2026-04-24 14:17 | 27.91107 | -81.09304 | 7971 ft | 265 kts | 331° |
| 2026-04-24 14:17 | 27.94377 | -81.11299 | 7972 ft | 271 kts | 331° |
| 2026-04-24 14:18 | 27.96091 | -81.12212 | 7977 ft | 274 kts | 339° |
| 2026-04-24 14:18 | 27.97898 | -81.12868 | 7985 ft | 278 kts | 342° |
| 2026-04-24 14:18 | 27.99760 | -81.13512 | 7984 ft | 281 kts | 342° |
| 2026-04-24 14:18 | 28.01620 | -81.14207 | 7979 ft | 281 kts | 340° |
| 2026-04-24 14:19 | 28.03440 | -81.14941 | 7979 ft | 274 kts | 340° |
| 2026-04-24 14:19 | 28.05218 | -81.15659 | 7991 ft | 269 kts | 340° |
| 2026-04-24 14:19 | 28.06976 | -81.16369 | 7976 ft | 266 kts | 339° |
| 2026-04-24 14:19 | 28.08715 | -81.17066 | 7993 ft | 264 kts | 340° |
| 2026-04-24 14:20 | 28.10437 | -81.17766 | 8003 ft | 262 kts | 339° |
| 2026-04-24 14:20 | 28.12157 | -81.18475 | 7952 ft | 263 kts | 339° |
| 2026-04-24 14:20 | 28.13898 | -81.19197 | 7738 ft | 270 kts | 339° |
| 2026-04-24 14:20 | 28.15638 | -81.19925 | 7403 ft | 269 kts | 339° |
| 2026-04-24 14:21 | 28.17387 | -81.20670 | 7068 ft | 268 kts | 339° |
| 2026-04-24 14:21 | 28.19125 | -81.21420 | 6733 ft | 267 kts | 339° |
| 2026-04-24 14:21 | 28.20855 | -81.22177 | 6398 ft | 266 kts | 339° |
| 2026-04-24 14:21 | 28.22582 | -81.22943 | 6058 ft | 266 kts | 339° |
| 2026-04-24 14:22 | 28.24303 | -81.23702 | 5708 ft | 263 kts | 342° |
| 2026-04-24 14:22 | 28.26084 | -81.24098 | 5365 ft | 260 kts | 353° |
| 2026-04-24 14:22 | 28.29634 | -81.24576 | 4992 ft | 254 kts | 354° |
| 2026-04-24 14:23 | 28.31364 | -81.24810 | 4815 ft | 252 kts | 351° |
| 2026-04-24 14:23 | 28.33066 | -81.25166 | 4616 ft | 247 kts | 354° |
| 2026-04-24 14:23 | 28.34777 | -81.25362 | 4418 ft | 246 kts | 356° |
| 2026-04-24 14:23 | 28.36489 | -81.25517 | 4215 ft | 246 kts | 356° |
| 2026-04-24 14:24 | 28.38191 | -81.25655 | 4023 ft | 246 kts | 356° |
| 2026-04-24 14:24 | 28.39899 | -81.25784 | 3833 ft | 246 kts | 357° |
| 2026-04-24 14:24 | 28.41611 | -81.25910 | 3647 ft | 247 kts | 356° |
| 2026-04-24 14:24 | 28.43327 | -81.26035 | 3477 ft | 247 kts | 357° |
| 2026-04-24 14:25 | 28.45050 | -81.26156 | 3270 ft | 248 kts | 357° |
| 2026-04-24 14:25 | 28.46777 | -81.26274 | 3050 ft | 249 kts | 357° |
| 2026-04-24 14:25 | 28.48469 | -81.26389 | 2862 ft | 238 kts | 357° |
| 2026-04-24 14:25 | 28.50073 | -81.26501 | 2671 ft | 219 kts | 357° |
| 2026-04-24 14:26 | 28.51500 | -81.26598 | 2575 ft | 197 kts | 357° |
| 2026-04-24 14:26 | 28.52805 | -81.26684 | 2523 ft | 179 kts | 357° |
| 2026-04-24 14:26 | 28.54004 | -81.26762 | 2506 ft | 169 kts | 357° |
| 2026-04-24 14:26 | 28.55181 | -81.26837 | 2490 ft | 168 kts | 357° |
| 2026-04-24 14:27 | 28.56340 | -81.26905 | 2505 ft | 167 kts | 356° |
| 2026-04-24 14:27 | 28.57502 | -81.26994 | 2515 ft | 167 kts | 350° |
| 2026-04-24 14:27 | 28.58589 | -81.27447 | 2510 ft | 166 kts | 345° |
| 2026-04-24 14:27 | 28.59730 | -81.27509 | 2504 ft | 164 kts | 351° |
| 2026-04-24 14:28 | 28.60662 | -81.28226 | 2310 ft | 172 kts | 295° |
| 2026-04-24 14:28 | 28.60639 | -81.29584 | 2076 ft | 175 kts | 244° |
| 2026-04-24 14:28 | 28.59719 | -81.30236 | 2155 ft | 158 kts | 179° |
| 2026-04-24 14:28 | 28.58809 | -81.29603 | 1901 ft | 170 kts | 120° |
| 2026-04-24 14:29 | 28.58164 | -81.28555 | 2057 ft | 151 kts | 144° |
| 2026-04-24 14:29 | 28.57192 | -81.28194 | 2071 ft | 153 kts | 180° |
| 2026-04-24 14:29 | 28.56148 | -81.28422 | 2036 ft | 155 kts | 198° |
| 2026-04-24 14:29 | 28.55237 | -81.28941 | 2252 ft | 139 kts | 210° |
| 2026-04-24 14:30 | 28.54730 | -81.29393 | 2304 ft | 138 kts | 224° |
| 2026-04-24 14:30 | 28.53593 | -81.30128 | 2073 ft | 154 kts | 182° |
| 2026-04-24 14:30 | 28.52469 | -81.30054 | 1793 ft | 170 kts | 174° |
| 2026-04-24 14:30 | 28.51287 | -81.29895 | 1596 ft | 168 kts | 172° |
| 2026-04-24 14:31 | 28.50156 | -81.29746 | 1309 ft | 160 kts | 174° |
| 2026-04-24 14:31 | 28.49124 | -81.29642 | 1233 ft | 140 kts | 173° |
| 2026-04-24 14:31 | 28.48187 | -81.29581 | 1063 ft | 126 kts | 179° |
| 2026-04-24 14:31 | 28.47364 | -81.29589 | 902 ft | 114 kts | 180° |
| 2026-04-24 14:32 | 28.46591 | -81.29608 | 749 ft | 108 kts | 179° |
| 2026-04-24 14:32 | 28.45842 | -81.29614 | 595 ft | 108 kts | 179° |
| 2026-04-24 14:32 | 28.45080 | -81.29612 | 452 ft | 112 kts | 180° |
| 2026-04-24 14:32 | 28.44275 | -81.29595 | 303 ft | 116 kts | 178° |
| 2026-04-24 14:33 | 28.43502 | -81.29587 | 127 ft | 106 kts | 180° |
| 2026-04-24 14:33 | 28.42902 | -81.29578 | 102 ft | 43 kts | 179° |
| 2026-04-24 14:33 | 28.42674 | -81.29583 | 99 ft | 29 kts | 180° |
| 2026-04-24 14:33 | 28.42498 | -81.29584 | 99 ft | 21 kts | 188° |
| 2026-04-24 14:34 | 28.42457 | -81.29655 | 99 ft | 0 kts | 287° |
| 2026-04-24 14:34 | 28.42552 | -81.29704 | 98 ft | 29 kts | 354° |
| 2026-04-24 14:34 | 28.42603 | -81.29795 | 99 ft | 13 kts | 269° |
| 2026-04-24 14:35 | 28.42620 | -81.29872 | 100 ft | 9 kts | 335° |
| 2026-04-24 14:35 | 28.42692 | -81.29885 | 100 ft | 12 kts | 354° |
| 2026-04-24 14:35 | 28.42781 | -81.29885 | 100 ft | 13 kts | 0° |
| 2026-04-24 14:35 | 28.42877 | -81.29885 | 99 ft | 14 kts | 353° |
| 2026-04-24 14:36 | 28.42947 | -81.29949 | 99 ft | 13 kts | 286° |
| 2026-04-24 14:36 | 28.42968 | -81.30039 | 99 ft | 11 kts | 285° |
| 2026-04-24 14:36 | 28.42959 | -81.30118 | 99 ft | 10 kts | 244° |
| 2026-04-24 14:36 | 28.42921 | -81.30172 | 99 ft | 8 kts | 202° |
| 2026-04-24 14:37 | 28.42871 | -81.30173 | 99 ft | 7 kts | 176° |
| 2026-04-24 14:37 | 28.42834 | -81.30173 | 100 ft | 0 kts | 184° |